KISW

Details ICAO KISW (ISW)
Name Alexander Fld South Wood Co
Region United States
Timezone America/Chicago (UTC-6.0)
Plans Departing 5
Arriving 6
Stats Elevation 1,021 ft / 311 m (AMSL)
Location 44.359969° -89.839476°
Runways 3
Magnetic Variation 2.539° W
Sunrise 2017-12-14 13:29:18 UTC / 2017-12-14 07:29:18 Local
Sunset 2017-12-14 22:21:49 UTC / 2017-12-14 16:21:49 Local
Advertisement - Login to hide

Runways

ID Width Length Bearing (true) Bearing (mag) Surface Threshold Offset Overrun Length
02 100 ft / 30 m 5,503 ft / 1,677 m 19.72° 22.26° Asphalt 0 ft / 0 m 0 ft / 0 m
11 50 ft / 15 m 3,633 ft / 1,107 m 115.97° 118.51° Asphalt 0 ft / 0 m 0 ft / 0 m
18 50 ft / 15 m 2,102 ft / 641 m 176.01° 178.55° Dirt 0 ft / 0 m 0 ft / 0 m
20 100 ft / 30 m 5,503 ft / 1,677 m 199.72° 202.26° Asphalt 0 ft / 0 m 100 ft / 30 m
29 50 ft / 15 m 3,633 ft / 1,107 m 295.98° 298.52° Asphalt 170 ft / 52 m 0 ft / 0 m
36 50 ft / 15 m 2,102 ft / 641 m 356.01° 358.55° Dirt 0 ft / 0 m 0 ft / 0 m

Map

Weather


0- 5 10 15 20 25 30 35+ Temperature / ° C

Clouds and Precipitation
Forecast for 2017-12-14 12:00 UTC. Updated an hour ago

Ground ~20,000 ft ~40,000 ft Winds

METAR

KISW 140754Z AUTO 00000KT 10SM FEW038 M14/M16 A2994 RMK AO2 SLP160 T11391156

TAF

Not found

Frequencies

Recorded 126.57 MHz ASOS
Unicom 122.80 MHz CTAF/UNICOM
Warning: Do not use this data for real-world aviation or navigation. No guarantee of current accuracy is given.